createdAt,value
2023-02-12T00:01:55.788Z,54.25
2023-02-12T00:04:25.023Z,54.04
2023-02-12T00:06:53.876Z,53.69
2023-02-12T00:09:22.957Z,53.59
2023-02-12T00:11:52.427Z,53.54
2023-02-12T00:14:21.749Z,54.35
2023-02-12T00:16:51.076Z,54.40
2023-02-12T00:19:20.417Z,54.44
2023-02-12T00:21:49.476Z,54.04
2023-02-12T00:24:18.559Z,54.11
2023-02-12T00:26:49.302Z,54.62
2023-02-12T00:29:18.877Z,55.12
2023-02-12T00:31:48.049Z,55.20
2023-02-12T00:34:17.858Z,55.09
2023-02-12T00:36:47.123Z,55.36
2023-02-12T00:39:16.145Z,55.02
2023-02-12T00:41:45.245Z,54.64
2023-02-12T00:44:40.652Z,54.64
2023-02-12T00:47:12.687Z,54.44
2023-02-12T00:49:42.015Z,54.16
2023-02-12T00:52:10.914Z,53.92
2023-02-12T00:54:40.134Z,54.25
2023-02-12T00:57:09.295Z,54.47
2023-02-12T01:00:22.274Z,54.11
2023-02-12T01:02:52.771Z,54.04
2023-02-12T01:05:22.529Z,54.01
2023-02-12T01:07:56.028Z,54.28
2023-02-12T01:10:27.737Z,54.45
2023-02-12T01:12:58.808Z,54.98
2023-02-12T01:15:29.031Z,54.15
2023-02-12T01:18:03.720Z,54.03
2023-02-12T01:20:33.363Z,53.47
2023-02-12T01:23:02.909Z,53.90
2023-02-12T01:25:32.546Z,54.12
2023-02-12T01:28:01.744Z,53.68
2023-02-12T01:30:31.374Z,54.05
2023-02-12T01:33:01.695Z,53.92
2023-02-12T01:35:31.140Z,53.74
2023-02-12T01:38:02.844Z,53.86
2023-02-12T01:40:32.540Z,53.61
2023-02-12T01:43:05.766Z,53.82
2023-02-12T01:45:38.381Z,53.63
2023-02-12T01:48:08.705Z,53.99
2023-02-12T01:50:38.335Z,53.76
2023-02-12T01:53:07.881Z,53.97
2023-02-12T01:55:37.084Z,54.10
2023-02-12T01:58:08.712Z,54.95
2023-02-12T02:00:38.292Z,54.38
2023-02-12T02:03:07.631Z,54.30
2023-02-12T02:05:52.040Z,54.24
2023-02-12T02:08:21.613Z,54.33
2023-02-12T02:14:56.227Z,54.27
2023-02-12T02:17:44.058Z,54.33
2023-02-12T02:20:37.284Z,55.04
2023-02-12T02:23:24.722Z,55.09
2023-02-12T02:26:33.667Z,55.03
2023-02-12T02:29:31.923Z,54.54
2023-02-12T02:36:27.944Z,55.04
2023-02-12T02:39:15.294Z,54.53
2023-02-12T02:41:44.895Z,54.53
2023-02-12T02:44:25.419Z,56.17
2023-02-12T02:46:55.858Z,54.95
2023-02-12T02:49:30.803Z,54.77
2023-02-12T02:52:09.245Z,55.19
2023-02-12T02:54:53.099Z,54.93
2023-02-12T02:57:28.792Z,55.07
2023-02-12T03:00:23.710Z,55.48
2023-02-12T03:03:00.833Z,55.78
2023-02-12T03:05:46.928Z,56.12
2023-02-12T03:08:25.042Z,55.42
2023-02-12T03:10:59.193Z,55.74
2023-02-12T03:13:44.556Z,55.73
2023-02-12T03:16:21.136Z,54.83
2023-02-12T03:19:02.892Z,55.17
2023-02-12T03:21:42.691Z,54.42
2023-02-12T03:24:14.818Z,54.45
2023-02-12T03:26:55.964Z,54.78
2023-02-12T03:29:25.568Z,54.89
2023-02-12T03:32:41.354Z,55.03
2023-02-12T03:35:22.416Z,53.91
2023-02-12T03:38:18.377Z,53.78
2023-02-12T03:41:15.115Z,53.36
2023-02-12T03:44:40.026Z,52.26
2023-02-12T03:47:45.532Z,51.45
2023-02-12T03:50:25.265Z,51.23
2023-02-12T03:52:55.014Z,50.71
2023-02-12T03:55:24.454Z,50.23
2023-02-12T03:58:01.847Z,49.94
2023-02-12T04:04:32.588Z,48.28
2023-02-12T04:07:03.497Z,45.70
2023-02-12T04:09:34.812Z,44.92
2023-02-12T04:12:13.572Z,45.14
2023-02-12T04:14:51.632Z,45.62
2023-02-12T04:17:31.695Z,45.65
2023-02-12T04:20:24.151Z,45.68
2023-02-12T04:23:06.022Z,45.67
2023-02-12T04:25:59.268Z,42.90
2023-02-12T04:28:45.546Z,42.98
2023-02-12T04:31:41.859Z,40.94
2023-02-12T04:34:45.538Z,41.31
2023-02-12T04:37:27.658Z,41.10
2023-02-12T04:39:59.897Z,40.83
2023-02-12T04:42:29.699Z,40.95
2023-02-12T04:44:59.459Z,40.90
2023-02-12T04:47:29.544Z,41.36
2023-02-12T04:49:59.119Z,40.13
2023-02-12T04:52:28.899Z,40.38
2023-02-12T04:54:58.440Z,38.88
2023-02-12T04:57:28.281Z,40.57
2023-02-12T04:59:57.934Z,39.66
2023-02-12T05:02:33.711Z,39.05
2023-02-12T05:06:07.860Z,39.47
2023-02-12T05:08:37.524Z,40.05
2023-02-12T05:11:08.926Z,39.93
2023-02-12T05:13:38.805Z,38.96
2023-02-12T05:16:10.152Z,39.46
2023-02-12T05:18:39.589Z,39.58
2023-02-12T05:21:08.568Z,39.54
2023-02-12T05:23:39.358Z,39.37
2023-02-12T05:26:20.397Z,39.07
2023-02-12T05:28:49.912Z,38.77
2023-02-12T05:31:23.225Z,38.37
2023-02-12T05:33:52.766Z,37.56
2023-02-12T05:36:24.757Z,37.88
2023-02-12T05:38:54.950Z,37.58
2023-02-12T05:41:25.596Z,37.12
2023-02-12T05:43:55.832Z,36.35
2023-02-12T05:46:26.445Z,35.85
2023-02-12T05:48:56.031Z,36.08
2023-02-12T05:51:27.210Z,36.37
2023-02-12T05:54:05.545Z,35.91
2023-02-12T05:56:37.559Z,35.94
2023-02-12T05:59:15.516Z,35.64
2023-02-12T06:01:47.263Z,36.79
2023-02-12T06:04:25.971Z,36.17
2023-02-12T06:06:56.784Z,37.29
2023-02-12T06:09:26.305Z,36.81
2023-02-12T06:11:55.401Z,36.69
2023-02-12T06:14:24.805Z,37.31
2023-02-12T06:16:54.264Z,36.66
2023-02-12T06:19:25.398Z,36.81
2023-02-12T06:21:54.952Z,36.79
2023-02-12T06:24:26.965Z,36.88
2023-02-12T06:26:56.184Z,36.21
2023-02-12T06:29:26.057Z,35.60
2023-02-12T06:31:55.341Z,36.91
2023-02-12T06:34:24.718Z,37.07
2023-02-12T06:36:53.692Z,37.06
2023-02-12T06:39:23.023Z,37.83
2023-02-12T06:41:52.212Z,38.32
2023-02-12T06:44:21.792Z,37.26
2023-02-12T06:46:51.095Z,36.79
2023-02-12T06:49:20.234Z,35.56
2023-02-12T06:51:49.271Z,35.96
2023-02-12T06:54:19.702Z,35.96
2023-02-12T06:56:48.878Z,36.15
2023-02-12T06:59:18.711Z,35.18
2023-02-12T07:01:48.051Z,34.54
2023-02-12T07:04:17.332Z,34.12
2023-02-12T07:06:46.404Z,34.86
2023-02-12T07:09:15.470Z,33.62
2023-02-12T07:11:44.495Z,33.97
2023-02-12T07:14:18.494Z,33.26
2023-02-12T07:16:47.738Z,34.10
2023-02-12T07:19:17.512Z,34.50
2023-02-12T07:21:46.854Z,34.09
2023-02-12T07:24:19.196Z,34.46
2023-02-12T07:26:48.351Z,34.65
2023-02-12T07:29:17.970Z,34.75
2023-02-12T07:31:47.257Z,32.34
2023-02-12T07:34:16.587Z,32.34
2023-02-12T07:36:45.982Z,33.65
2023-02-12T07:39:14.996Z,33.67
2023-02-12T07:41:44.384Z,33.24
2023-02-12T07:44:14.433Z,32.94
2023-02-12T07:46:48.953Z,32.19
2023-02-12T07:49:23.188Z,32.47
2023-02-12T07:51:52.652Z,30.66
2023-02-12T07:54:21.752Z,31.86
2023-02-12T07:56:52.856Z,31.26
2023-02-12T07:59:22.335Z,31.36
2023-02-12T08:01:53.601Z,31.09
2023-02-12T08:04:26.050Z,30.63
2023-02-12T08:06:57.116Z,32.05
2023-02-12T08:09:29.200Z,31.61
2023-02-12T08:11:59.055Z,31.48
2023-02-12T08:14:28.897Z,31.81
2023-02-12T08:16:57.924Z,29.60
2023-02-12T08:19:27.082Z,30.48
2023-02-12T08:21:57.915Z,30.64
2023-02-12T08:24:27.375Z,30.58
2023-02-12T08:26:56.933Z,30.66
2023-02-12T08:29:29.531Z,30.12
2023-02-12T08:32:01.336Z,30.25
2023-02-12T08:34:36.675Z,28.07
2023-02-12T08:37:07.794Z,26.99
2023-02-12T08:39:36.876Z,26.69
2023-02-12T08:42:06.835Z,26.78
2023-02-12T08:44:36.379Z,27.82
2023-02-12T08:47:07.251Z,27.22
2023-02-12T08:49:37.991Z,27.24
2023-02-12T08:52:07.554Z,28.20
2023-02-12T08:54:37.243Z,25.30
2023-02-12T08:57:06.233Z,25.74
2023-02-12T08:59:35.232Z,24.41
2023-02-12T09:02:09.604Z,26.97
2023-02-12T09:04:38.965Z,26.33
2023-02-12T09:07:10.729Z,26.87
2023-02-12T09:09:40.601Z,27.09
2023-02-12T09:12:09.659Z,26.61
2023-02-12T09:14:39.367Z,26.36
2023-02-12T09:17:08.365Z,28.42
2023-02-12T09:19:37.846Z,28.68
2023-02-12T09:22:07.121Z,27.08
2023-02-12T09:24:36.334Z,26.33
2023-02-12T09:27:05.625Z,25.53
2023-02-12T09:29:34.590Z,25.54
2023-02-12T09:32:06.521Z,24.42
2023-02-12T09:34:39.093Z,24.96
2023-02-12T09:37:08.406Z,26.12
2023-02-12T09:39:37.341Z,26.70
2023-02-12T09:42:37.475Z,24.75
2023-02-12T09:45:33.955Z,26.22
2023-02-12T09:48:23.364Z,25.33
2023-02-12T09:51:04.621Z,24.67
2023-02-12T09:53:36.517Z,24.52
2023-02-12T09:56:12.955Z,25.15
2023-02-12T09:58:53.026Z,24.83
2023-02-12T10:01:23.750Z,24.95
2023-02-12T10:03:54.285Z,25.10
2023-02-12T10:06:31.775Z,24.43
2023-02-12T10:09:19.540Z,23.45
2023-02-12T10:12:18.786Z,23.93
2023-02-12T10:14:53.739Z,23.26
2023-02-12T10:17:34.964Z,22.85
2023-02-12T10:20:42.148Z,22.35
2023-02-12T10:23:29.184Z,22.57
2023-02-12T10:26:14.032Z,22.96
2023-02-12T10:28:44.423Z,23.30
2023-02-12T10:31:30.045Z,23.65
2023-02-12T10:33:59.949Z,23.53
2023-02-12T10:36:43.673Z,23.62
2023-02-12T10:39:17.059Z,24.03
2023-02-12T10:42:02.367Z,23.05
2023-02-12T10:44:32.537Z,22.06
2023-02-12T10:47:02.494Z,21.94
2023-02-12T10:49:34.038Z,21.71
2023-02-12T10:52:13.903Z,22.35
2023-02-12T10:54:46.791Z,22.59
2023-02-12T10:57:26.480Z,22.55
2023-02-12T11:00:15.354Z,23.33
2023-02-12T11:03:02.779Z,23.21
2023-02-12T11:05:34.878Z,23.62
2023-02-12T11:08:06.414Z,23.01
2023-02-12T11:10:41.334Z,23.18
2023-02-12T11:13:29.212Z,23.92
2023-02-12T11:15:58.756Z,23.01
2023-02-12T11:18:37.592Z,23.40
2023-02-12T11:21:12.845Z,23.90
2023-02-12T11:23:46.265Z,23.86
2023-02-12T11:26:21.745Z,23.84
2023-02-12T11:29:18.316Z,24.05
2023-02-12T11:32:03.728Z,23.16
2023-02-12T11:34:33.124Z,22.62
2023-02-12T11:37:03.340Z,23.36
2023-02-12T11:39:40.001Z,23.85
2023-02-12T11:42:24.333Z,24.83
2023-02-12T11:44:58.729Z,25.41
2023-02-12T11:47:31.567Z,24.76
2023-02-12T11:50:27.526Z,25.45
2023-02-12T11:53:07.821Z,25.34
2023-02-12T11:55:41.080Z,25.27
2023-02-12T11:58:18.891Z,24.36
2023-02-12T12:00:55.345Z,25.23
2023-02-12T12:03:27.428Z,24.90
2023-02-12T12:06:04.284Z,24.88
2023-02-12T12:08:49.738Z,24.53
2023-02-12T12:11:26.272Z,24.29
2023-02-12T12:14:05.915Z,25.09
2023-02-12T12:17:15.215Z,24.98
2023-02-12T12:19:59.529Z,25.28
2023-02-12T12:22:48.217Z,25.45
2023-02-12T12:25:36.344Z,25.22
2023-02-12T12:28:32.292Z,25.40
2023-02-12T12:31:07.491Z,25.67
2023-02-12T12:33:59.940Z,25.55
2023-02-12T12:36:59.134Z,25.80
2023-02-12T12:39:34.342Z,26.43
2023-02-12T12:42:27.918Z,27.19
2023-02-12T12:45:13.557Z,28.18
2023-02-12T12:48:04.331Z,28.80
2023-02-12T12:50:57.310Z,28.97
2023-02-12T12:53:53.914Z,29.41
2023-02-12T12:56:40.417Z,29.24
2023-02-12T12:59:43.871Z,29.58
2023-02-12T13:02:34.835Z,28.85
2023-02-12T13:05:22.050Z,29.19
2023-02-12T13:08:12.720Z,29.59
2023-02-12T13:10:54.853Z,30.01
2023-02-12T13:13:41.054Z,29.92
2023-02-12T13:16:16.039Z,30.48
2023-02-12T13:19:02.911Z,29.90
2023-02-12T13:22:00.737Z,29.38
2023-02-12T13:24:35.916Z,29.18
2023-02-12T13:27:22.032Z,28.60
2023-02-12T13:30:00.242Z,28.88
2023-02-12T13:32:44.131Z,28.83
2023-02-12T13:35:30.830Z,28.36
2023-02-12T13:38:01.821Z,28.30
2023-02-12T13:40:32.773Z,28.60
2023-02-12T13:43:34.700Z,28.54
2023-02-12T13:46:13.450Z,28.70
2023-02-12T13:49:16.624Z,28.94
2023-02-12T13:51:55.149Z,29.60
2023-02-12T13:55:21.203Z,30.37
2023-02-12T13:58:35.917Z,30.96
2023-02-12T14:01:34.740Z,31.62
2023-02-12T14:04:21.144Z,32.31
2023-02-12T14:07:13.874Z,31.91
2023-02-12T14:09:52.179Z,32.40
2023-02-12T14:12:27.505Z,32.77
2023-02-12T14:15:06.944Z,32.65
2023-02-12T14:17:36.372Z,32.78
2023-02-12T14:20:12.716Z,32.80
2023-02-12T14:22:45.001Z,32.81
2023-02-12T14:25:26.088Z,32.69
2023-02-12T14:28:07.450Z,32.40
2023-02-12T14:30:40.221Z,33.10
2023-02-12T14:33:09.490Z,33.56
2023-02-12T14:35:45.975Z,33.59
2023-02-12T14:38:21.425Z,33.10
2023-02-12T14:40:52.262Z,33.18
2023-02-12T14:43:33.561Z,33.14
2023-02-12T14:46:24.877Z,33.09
2023-02-12T14:49:06.892Z,33.18
2023-02-12T14:51:52.734Z,32.97
2023-02-12T14:54:51.275Z,32.50
2023-02-12T14:57:35.025Z,33.05
2023-02-12T15:00:19.614Z,33.21
2023-02-12T15:02:52.283Z,33.69
2023-02-12T15:05:45.125Z,33.70
2023-02-12T15:08:21.877Z,33.79
2023-02-12T15:10:56.712Z,33.76
2023-02-12T15:13:49.306Z,33.38
2023-02-12T15:16:27.175Z,33.39
2023-02-12T15:19:15.799Z,32.74
2023-02-12T15:21:47.040Z,33.26
2023-02-12T15:24:24.704Z,33.20
2023-02-12T15:27:03.035Z,33.41
2023-02-12T15:29:42.549Z,33.34
2023-02-12T15:32:20.747Z,32.80
2023-02-12T15:34:51.686Z,32.95
2023-02-12T15:37:28.483Z,33.55
2023-02-12T15:40:01.677Z,33.78
2023-02-12T15:42:35.276Z,34.58
2023-02-12T15:45:16.382Z,34.24
2023-02-12T15:47:47.631Z,34.55
2023-02-12T15:50:19.187Z,34.83
2023-02-12T15:52:51.197Z,34.30
2023-02-12T15:55:23.831Z,34.74
2023-02-12T15:57:56.039Z,34.42
2023-02-12T16:00:42.387Z,34.34
2023-02-12T16:03:32.312Z,34.46
2023-02-12T16:06:15.015Z,34.21
2023-02-12T16:08:48.032Z,34.04
2023-02-12T16:11:21.668Z,33.70
2023-02-12T16:13:58.255Z,33.53
2023-02-12T16:16:55.812Z,33.96
2023-02-12T16:19:38.056Z,34.17
2023-02-12T16:22:09.778Z,33.65
2023-02-12T16:24:48.571Z,33.15
2023-02-12T16:27:22.395Z,33.52
2023-02-12T16:29:59.405Z,33.29
2023-02-12T16:32:35.117Z,33.53
2023-02-12T16:35:13.307Z,33.41
2023-02-12T16:37:53.237Z,33.68
2023-02-12T16:40:27.276Z,33.94
2023-02-12T16:42:56.405Z,33.62
2023-02-12T16:45:35.663Z,34.04
2023-02-12T16:48:13.774Z,34.21
2023-02-12T16:50:56.283Z,34.08
2023-02-12T16:53:32.855Z,34.15
2023-02-12T16:56:04.021Z,34.49
2023-02-12T16:58:33.874Z,34.21
2023-02-12T17:01:05.967Z,34.63
2023-02-12T17:03:37.223Z,34.51
2023-02-12T17:06:06.800Z,34.29
2023-02-12T17:08:36.048Z,34.26
2023-02-12T17:11:05.806Z,34.58
2023-02-12T17:13:34.818Z,34.95
2023-02-12T17:16:04.716Z,35.05
2023-02-12T17:18:34.142Z,35.42
2023-02-12T17:21:28.056Z,35.06
2023-02-12T17:23:57.795Z,34.91
2023-02-12T17:26:26.913Z,35.00
2023-02-12T17:28:56.206Z,34.98
2023-02-12T17:31:25.840Z,34.90
2023-02-12T17:33:55.000Z,34.66
2023-02-12T17:36:25.530Z,34.61
2023-02-12T17:38:54.900Z,34.67
2023-02-12T17:41:25.484Z,35.17
2023-02-12T17:43:54.688Z,35.05
2023-02-12T17:46:26.985Z,35.77
2023-02-12T17:48:56.538Z,35.90
2023-02-12T17:51:26.034Z,35.97
2023-02-12T17:53:55.212Z,35.89
2023-02-12T17:56:26.683Z,36.26
2023-02-12T17:58:55.648Z,36.38
2023-02-12T18:01:25.837Z,36.45
2023-02-12T18:03:56.616Z,36.54
2023-02-12T18:06:28.930Z,36.28
2023-02-12T18:09:00.371Z,36.08
2023-02-12T18:11:30.737Z,36.11
2023-02-12T18:14:01.394Z,36.07
2023-02-12T18:16:32.609Z,36.13
2023-02-12T18:19:05.484Z,36.60
2023-02-12T18:21:35.968Z,36.44
2023-02-12T18:24:05.751Z,36.80
2023-02-12T18:26:34.895Z,36.34
2023-02-12T18:29:04.300Z,37.03
2023-02-12T18:31:34.114Z,36.59
2023-02-12T18:34:05.082Z,36.49
2023-02-12T18:36:34.892Z,36.21
2023-02-12T18:39:04.061Z,36.38
2023-02-12T18:41:36.768Z,36.24
2023-02-12T18:44:06.634Z,35.96
2023-02-12T18:46:35.527Z,36.07
2023-02-12T18:49:06.692Z,36.15
2023-02-12T18:51:39.337Z,35.89
2023-02-12T18:54:11.815Z,36.16
2023-02-12T18:56:44.623Z,36.16
2023-02-12T18:59:14.650Z,35.30
2023-02-12T19:01:45.339Z,35.29
2023-02-12T19:04:17.062Z,34.84
2023-02-12T19:06:49.792Z,34.42
2023-02-12T19:09:21.234Z,34.25
2023-02-12T19:11:53.033Z,34.54
2023-02-12T19:14:24.631Z,34.67
2023-02-12T19:16:54.275Z,34.65
2023-02-12T19:19:23.867Z,34.31
2023-02-12T19:21:53.347Z,34.52
2023-02-12T19:24:22.978Z,34.73
2023-02-12T19:26:54.374Z,34.63
2023-02-12T19:29:23.755Z,34.37
2023-02-12T19:31:52.879Z,34.67
2023-02-12T19:34:24.164Z,34.78
2023-02-12T19:36:53.540Z,34.93
2023-02-12T19:39:25.746Z,35.10
2023-02-12T19:41:57.055Z,35.00
2023-02-12T19:44:27.335Z,34.87
2023-02-12T19:46:57.893Z,34.84
2023-02-12T19:49:29.770Z,34.88
2023-02-12T19:51:59.183Z,35.46
2023-02-12T19:54:28.681Z,35.67
2023-02-12T19:56:58.505Z,35.39
2023-02-12T19:59:28.107Z,34.77
2023-02-12T20:01:57.507Z,34.84
2023-02-12T20:04:27.089Z,35.52
2023-02-12T20:06:56.806Z,35.47
2023-02-12T20:09:26.369Z,35.09
2023-02-12T20:11:56.265Z,35.46
2023-02-12T20:14:25.385Z,35.87
2023-02-12T20:16:57.132Z,36.00
2023-02-12T20:19:32.276Z,35.51
2023-02-12T20:22:02.584Z,35.83
2023-02-12T20:24:34.496Z,35.40
2023-02-12T20:27:04.508Z,35.43
2023-02-12T20:29:33.937Z,35.26
2023-02-12T20:32:03.548Z,35.15
2023-02-12T20:34:42.496Z,35.43
2023-02-12T20:37:19.273Z,34.75
2023-02-12T20:39:49.190Z,34.58
2023-02-12T20:42:17.992Z,34.73
2023-02-12T20:44:47.371Z,34.80
2023-02-12T20:47:16.849Z,34.90
2023-02-12T20:49:47.028Z,34.98
2023-02-12T20:52:16.106Z,35.23
2023-02-12T20:54:47.745Z,35.13
2023-02-12T20:57:18.143Z,35.02
2023-02-12T20:59:47.277Z,35.11
2023-02-12T21:02:17.670Z,35.17
2023-02-12T21:04:46.874Z,34.50
2023-02-12T21:07:16.370Z,34.65
2023-02-12T21:09:46.009Z,34.85
2023-02-12T21:12:15.047Z,34.77
2023-02-12T21:14:44.457Z,34.65
2023-02-12T21:17:13.422Z,35.02
2023-02-12T21:19:42.793Z,34.38
2023-02-12T21:22:11.735Z,34.79
2023-02-12T21:24:41.040Z,34.89
2023-02-12T21:27:10.307Z,34.77
2023-02-12T21:29:39.923Z,34.84
2023-02-12T21:32:09.142Z,34.24
2023-02-12T21:34:38.966Z,34.28
2023-02-12T21:37:08.383Z,34.69
2023-02-12T21:39:38.029Z,34.67
2023-02-12T21:42:06.834Z,34.77
2023-02-12T21:44:36.513Z,35.07
2023-02-12T21:47:06.656Z,34.63
2023-02-12T21:49:36.134Z,35.01
2023-02-12T21:52:07.651Z,35.08
2023-02-12T21:54:36.793Z,35.24
2023-02-12T21:57:05.905Z,35.26
2023-02-12T21:59:35.046Z,35.63
2023-02-12T22:02:04.044Z,35.14
2023-02-12T22:04:33.287Z,35.78
2023-02-12T22:07:04.306Z,35.80
2023-02-12T22:09:34.589Z,36.04
2023-02-12T22:12:03.610Z,35.82
2023-02-12T22:14:33.295Z,35.94
2023-02-12T22:17:02.389Z,35.67
2023-02-12T22:19:32.094Z,35.84
2023-02-12T22:22:01.291Z,36.09
2023-02-12T22:24:30.702Z,35.61
2023-02-12T22:26:59.701Z,35.55
2023-02-12T22:29:29.137Z,35.32
2023-02-12T22:31:58.008Z,35.32
2023-02-12T22:34:27.131Z,35.48
2023-02-12T22:36:56.416Z,35.14
2023-02-12T22:39:25.647Z,35.24
2023-02-12T22:41:54.817Z,34.44
2023-02-12T22:44:24.320Z,34.61
2023-02-12T22:46:53.523Z,34.68
2023-02-12T22:49:23.080Z,35.16
2023-02-12T22:51:52.208Z,34.54
2023-02-12T22:54:21.837Z,33.92
2023-02-12T22:56:54.364Z,33.88
2023-02-12T22:59:24.030Z,34.27
2023-02-12T23:01:53.171Z,33.79
2023-02-12T23:04:22.712Z,33.52
2023-02-12T23:06:51.797Z,33.42
2023-02-12T23:09:21.140Z,33.33
2023-02-12T23:11:50.576Z,33.38
2023-02-12T23:14:20.257Z,33.04
2023-02-12T23:16:50.047Z,33.22
2023-02-12T23:19:19.779Z,32.77
2023-02-12T23:21:48.884Z,33.48
2023-02-12T23:24:18.417Z,33.79
2023-02-12T23:26:47.573Z,33.78
2023-02-12T23:29:16.886Z,33.33
2023-02-12T23:31:46.122Z,33.34
2023-02-12T23:34:15.885Z,33.59
2023-02-12T23:36:44.713Z,34.03
2023-02-12T23:39:14.449Z,33.68
2023-02-12T23:41:43.528Z,33.96
2023-02-12T23:44:13.053Z,33.72
2023-02-12T23:46:42.321Z,33.66
2023-02-12T23:49:11.855Z,33.38
2023-02-12T23:51:40.813Z,33.60
2023-02-12T23:54:10.400Z,33.89
2023-02-12T23:56:39.437Z,34.22
2023-02-12T23:59:09.263Z,33.64
